createdAt,value
2022-12-03T00:02:22.219Z,102509.03
2022-12-03T00:04:49.738Z,102504.22
2022-12-03T00:07:17.306Z,102499.88
2022-12-03T00:09:44.584Z,102501.84
2022-12-03T00:12:11.937Z,102508.16
2022-12-03T00:14:44.422Z,102503.06
2022-12-03T00:17:13.624Z,102501.03
2022-12-03T00:19:40.823Z,102488.31
2022-12-03T00:22:08.162Z,102491.16
2022-12-03T00:24:35.667Z,102491.16
2022-12-03T00:27:03.398Z,102497.13
2022-12-03T00:29:30.807Z,102496.56
2022-12-03T00:31:58.349Z,102487.59
2022-12-03T00:34:26.985Z,102488.88
2022-12-03T00:36:57.359Z,102486.00
2022-12-03T00:39:24.764Z,102486.78
2022-12-03T00:41:52.315Z,102490.97
2022-12-03T00:44:19.793Z,102493.72
2022-12-03T00:46:47.275Z,102491.78
2022-12-03T00:49:14.568Z,102494.16
2022-12-03T00:51:43.337Z,102488.81
2022-12-03T00:54:10.923Z,102490.41
2022-12-03T00:56:39.921Z,102494.31
2022-12-03T00:59:07.531Z,102490.75
2022-12-03T01:01:34.944Z,102490.50
2022-12-03T01:04:02.268Z,102489.59
2022-12-03T01:06:29.637Z,102487.53
2022-12-03T01:08:58.312Z,102488.59
2022-12-03T01:11:25.860Z,102490.53
2022-12-03T01:13:53.238Z,102492.81
2022-12-03T01:16:20.739Z,102489.16
2022-12-03T01:18:48.085Z,102486.72
2022-12-03T01:21:15.620Z,102487.78
2022-12-03T01:23:42.929Z,102491.81
2022-12-03T01:26:11.625Z,102494.47
2022-12-03T01:28:38.957Z,102485.28
2022-12-03T01:31:06.753Z,102491.59
2022-12-03T01:33:34.364Z,102490.78
2022-12-03T01:36:01.655Z,102492.38
2022-12-03T01:38:28.928Z,102486.19
2022-12-03T01:40:56.462Z,102487.13
2022-12-03T01:43:25.316Z,102490.56
2022-12-03T01:45:52.778Z,102490.56
2022-12-03T01:48:20.234Z,102485.78
2022-12-03T01:50:47.924Z,102484.03
2022-12-03T01:53:17.016Z,102490.34
2022-12-03T01:55:48.627Z,102492.66
2022-12-03T01:58:19.306Z,102494.84
2022-12-03T02:00:48.278Z,102502.06
2022-12-03T02:03:19.695Z,102493.25
2022-12-03T02:05:47.127Z,102495.88
2022-12-03T02:08:31.640Z,102494.06
2022-12-03T02:11:02.703Z,102487.97
2022-12-03T02:13:30.250Z,102490.13
2022-12-03T02:15:59.138Z,102499.09
2022-12-03T02:18:26.721Z,102488.09
2022-12-03T02:21:02.245Z,102488.66
2022-12-03T02:23:36.141Z,102492.91
2022-12-03T02:26:05.095Z,102486.69
2022-12-03T02:28:32.712Z,102485.22
2022-12-03T02:31:00.246Z,102489.56
2022-12-03T02:33:27.630Z,102493.84
2022-12-03T02:35:58.017Z,102483.38
2022-12-03T02:38:32.403Z,102483.06
2022-12-03T02:41:06.439Z,102487.19
2022-12-03T02:43:33.945Z,102482.84
2022-12-03T02:46:03.445Z,102491.09
2022-12-03T02:48:33.987Z,102491.09
2022-12-03T02:51:04.127Z,102492.56
2022-12-03T02:53:36.158Z,102492.47
2022-12-03T02:56:06.112Z,102490.06
2022-12-03T02:58:34.120Z,102488.34
2022-12-03T03:01:04.171Z,102490.06
2022-12-03T03:03:32.929Z,102482.38
2022-12-03T03:06:03.012Z,102482.75
2022-12-03T03:08:31.181Z,102487.31
2022-12-03T03:11:00.932Z,102483.63
2022-12-03T03:13:30.756Z,102477.13
2022-12-03T03:15:58.681Z,102479.75
2022-12-03T03:18:26.046Z,102470.22
2022-12-03T03:20:53.643Z,102483.16
2022-12-03T03:23:24.127Z,102477.13
2022-12-03T03:26:01.358Z,102481.81
2022-12-03T03:28:31.230Z,102479.41
2022-12-03T03:31:02.224Z,102487.06
2022-12-03T03:33:31.091Z,102474.81
2022-12-03T03:36:01.955Z,102481.91
2022-12-03T03:38:30.455Z,102475.03
2022-12-03T03:41:00.525Z,102474.38
2022-12-03T03:43:31.341Z,102473.44
2022-12-03T03:45:59.086Z,102483.63
2022-12-03T03:48:26.533Z,102478.00
2022-12-03T03:50:54.189Z,102467.00
2022-12-03T03:53:21.995Z,102472.63
2022-12-03T03:55:49.935Z,102471.81
2022-12-03T03:58:17.307Z,102470.44
2022-12-03T04:00:46.952Z,102462.53
2022-12-03T04:03:14.351Z,102474.22
2022-12-03T04:05:41.794Z,102473.06
2022-12-03T04:08:09.139Z,102476.03
2022-12-03T04:10:36.567Z,102472.94
2022-12-03T04:13:04.507Z,102471.34
2022-12-03T04:15:31.968Z,102476.84
2022-12-03T04:18:00.965Z,102477.50
2022-12-03T04:20:28.238Z,102483.00
2022-12-03T04:22:55.571Z,102481.63
2022-12-03T04:25:22.823Z,102481.16
2022-12-03T04:27:53.790Z,102481.03
2022-12-03T04:30:21.205Z,102478.06
2022-12-03T04:32:51.648Z,102475.69
2022-12-03T04:35:20.448Z,102478.19
2022-12-03T04:37:47.880Z,102483.81
2022-12-03T04:40:15.376Z,102480.59
2022-12-03T04:42:42.660Z,102481.63
2022-12-03T04:45:10.887Z,102474.88
2022-12-03T04:47:39.980Z,102481.16
2022-12-03T04:50:08.411Z,102485.28
2022-12-03T04:52:37.034Z,102485.19
2022-12-03T04:55:04.919Z,102479.56
2022-12-03T04:57:32.151Z,102483.91
2022-12-03T04:59:59.525Z,102487.69
2022-12-03T05:02:42.042Z,102476.84
2022-12-03T05:05:10.134Z,102486.66
2022-12-03T05:07:38.923Z,102489.63
2022-12-03T05:10:07.775Z,102481.59
2022-12-03T05:12:35.221Z,102480.22
2022-12-03T05:15:03.901Z,102482.28
2022-12-03T05:17:31.500Z,102482.94
2022-12-03T05:19:58.842Z,102482.03
2022-12-03T05:22:26.121Z,102484.31
2022-12-03T05:24:55.324Z,102490.47
2022-12-03T05:27:24.112Z,102483.13
2022-12-03T05:29:52.297Z,102478.44
2022-12-03T05:32:19.824Z,102475.91
2022-12-03T05:34:47.467Z,102482.41
2022-12-03T05:37:14.990Z,102483.22
2022-12-03T05:39:42.315Z,102477.00
2022-12-03T05:42:11.041Z,102487.19
2022-12-03T05:44:38.438Z,102491.19
2022-12-03T05:47:06.027Z,102483.50
2022-12-03T05:49:33.427Z,102483.50
2022-12-03T05:52:00.741Z,102482.34
2022-12-03T05:54:29.271Z,102478.34
2022-12-03T05:56:56.949Z,102480.53
2022-12-03T05:59:25.683Z,102481.44
2022-12-03T06:01:55.713Z,102478.22
2022-12-03T06:04:25.347Z,102479.81
2022-12-03T06:06:52.689Z,102481.94
2022-12-03T06:09:20.003Z,102474.06
2022-12-03T06:11:47.478Z,102473.72
2022-12-03T06:14:15.006Z,102479.53
2022-12-03T06:16:43.688Z,102471.09
2022-12-03T06:19:11.137Z,102479.47
2022-12-03T06:21:38.606Z,102471.91
2022-12-03T06:24:06.369Z,102472.50
2022-12-03T06:26:33.639Z,102473.00
2022-12-03T06:29:00.978Z,102474.56
2022-12-03T06:31:28.347Z,102479.13
2022-12-03T06:33:57.123Z,102461.88
2022-12-03T06:36:24.357Z,102475.00
2022-12-03T06:38:51.613Z,102470.19
2022-12-03T06:41:19.024Z,102469.03
2022-12-03T06:43:46.729Z,102478.22
2022-12-03T06:46:14.193Z,102473.50
2022-12-03T06:48:41.810Z,102475.94
2022-12-03T06:51:10.455Z,102473.84
2022-12-03T06:53:37.863Z,102471.44
2022-12-03T06:56:05.940Z,102480.47
2022-12-03T06:58:33.241Z,102472.94
2022-12-03T07:01:00.550Z,102463.16
2022-12-03T07:03:27.922Z,102453.59
2022-12-03T07:05:55.375Z,102458.94
2022-12-03T07:08:24.093Z,102458.25
2022-12-03T07:10:51.425Z,102465.06
2022-12-03T07:13:18.816Z,102469.78
2022-12-03T07:15:46.436Z,102461.91
2022-12-03T07:18:14.047Z,102459.59
2022-12-03T07:20:41.321Z,102467.50
2022-12-03T07:23:08.600Z,102472.19
2022-12-03T07:25:37.641Z,102474.00
2022-12-03T07:28:05.239Z,102464.63
2022-12-03T07:30:32.465Z,102468.50
2022-12-03T07:32:59.802Z,102465.06
2022-12-03T07:35:28.011Z,102470.56
2022-12-03T07:37:55.437Z,102465.34
2022-12-03T07:40:22.747Z,102471.72
2022-12-03T07:42:51.424Z,102466.69
2022-12-03T07:45:18.960Z,102470.84
2022-12-03T07:47:46.525Z,102466.63
2022-12-03T07:50:14.018Z,102466.97
2022-12-03T07:52:41.386Z,102452.34
2022-12-03T07:55:10.604Z,102454.63
2022-12-03T07:57:38.112Z,102428.53
2022-12-03T08:00:08.176Z,102441.25
2022-12-03T08:02:36.081Z,102444.34
2022-12-03T08:05:03.924Z,102443.66
2022-12-03T08:07:31.502Z,102444.59
2022-12-03T08:09:59.147Z,102448.56
2022-12-03T08:12:28.149Z,102444.41
2022-12-03T08:14:56.721Z,102447.16
2022-12-03T08:17:26.901Z,102449.47
2022-12-03T08:19:54.187Z,102448.94
2022-12-03T08:22:21.541Z,102456.72
2022-12-03T08:24:49.096Z,102460.38
2022-12-03T08:27:18.904Z,102470.44
2022-12-03T08:29:46.655Z,102463.00
2022-12-03T08:32:14.392Z,102454.88
2022-12-03T08:34:44.574Z,102452.06
2022-12-03T08:37:17.448Z,102450.84
2022-12-03T08:39:46.631Z,102452.16
2022-12-03T08:42:18.554Z,102447.94
2022-12-03T08:44:45.882Z,102449.63
2022-12-03T08:47:19.415Z,102446.59
2022-12-03T08:49:53.814Z,102441.38
2022-12-03T08:52:30.783Z,102447.16
2022-12-03T08:54:58.627Z,102449.56
2022-12-03T08:57:29.009Z,102449.09
2022-12-03T09:00:00.021Z,102456.41
2022-12-03T09:02:32.823Z,102443.81
2022-12-03T09:05:16.548Z,102449.63
2022-12-03T09:07:43.860Z,102445.78
2022-12-03T09:10:11.215Z,102442.16
2022-12-03T09:12:38.515Z,102437.84
2022-12-03T09:15:07.223Z,102446.47
2022-12-03T09:17:34.692Z,102442.63
2022-12-03T09:20:04.478Z,102447.69
2022-12-03T09:22:32.028Z,102439.53
2022-12-03T09:24:59.302Z,102441.69
2022-12-03T09:27:26.662Z,102441.88
2022-12-03T09:29:53.999Z,102441.69
2022-12-03T09:32:21.437Z,102432.56
2022-12-03T09:34:48.874Z,102434.69
2022-12-03T09:37:17.658Z,102438.00
2022-12-03T09:39:45.094Z,102441.34
2022-12-03T09:42:14.744Z,102433.25
2022-12-03T09:44:45.445Z,102431.09
2022-12-03T09:47:12.868Z,102435.78
2022-12-03T09:49:41.502Z,102440.59
2022-12-03T09:52:16.238Z,102428.97
2022-12-03T09:54:51.912Z,102424.94
2022-12-03T09:57:19.960Z,102426.91
2022-12-03T09:59:47.412Z,102421.97
2022-12-03T10:02:21.534Z,102419.44
2022-12-03T10:04:49.811Z,102410.88
2022-12-03T10:07:17.165Z,102409.41
2022-12-03T10:09:45.984Z,102406.25
2022-12-03T10:12:14.488Z,102409.63
2022-12-03T10:14:45.605Z,102407.09
2022-12-03T10:17:12.992Z,102413.75
2022-12-03T10:19:40.534Z,102416.22
2022-12-03T10:22:07.876Z,102411.88
2022-12-03T10:24:36.565Z,102411.16
2022-12-03T10:27:21.019Z,102406.00
2022-12-03T10:29:54.914Z,102407.19
2022-12-03T10:32:25.806Z,102407.09
2022-12-03T10:35:07.293Z,102397.34
2022-12-03T10:37:34.686Z,102403.31
2022-12-03T10:40:05.625Z,102397.16
2022-12-03T10:42:38.509Z,102382.72
2022-12-03T10:45:23.628Z,102381.09
2022-12-03T10:48:06.410Z,102378.38
2022-12-03T10:50:34.698Z,102372.19
2022-12-03T10:53:02.870Z,102368.47
2022-12-03T10:55:37.357Z,102370.56
2022-12-03T10:58:08.803Z,102370.19
2022-12-03T11:00:36.122Z,102367.94
2022-12-03T11:03:03.692Z,102363.66
2022-12-03T11:05:31.233Z,102359.53
2022-12-03T11:07:58.660Z,102360.72
2022-12-03T11:10:26.065Z,102356.81
2022-12-03T11:13:30.291Z,102359.78
2022-12-03T11:15:58.285Z,102347.41
2022-12-03T11:19:01.403Z,102346.63
2022-12-03T11:21:29.630Z,102351.09
2022-12-03T11:24:19.139Z,102338.50
2022-12-03T11:27:20.882Z,102338.03
2022-12-03T11:30:01.017Z,102327.91
2022-12-03T11:33:05.051Z,102333.97
2022-12-03T11:36:04.907Z,102323.19
2022-12-03T11:38:53.237Z,102322.94
2022-12-03T11:41:24.038Z,102328.69
2022-12-03T11:44:20.360Z,102324.03
2022-12-03T11:46:49.362Z,102311.09
2022-12-03T11:49:29.748Z,102321.00
2022-12-03T11:51:57.704Z,102307.97
2022-12-03T11:54:25.338Z,102313.25
2022-12-03T11:56:54.228Z,102307.78
2022-12-03T11:59:21.608Z,102300.09
2022-12-03T12:01:50.745Z,102298.16
2022-12-03T12:04:31.448Z,102304.22
2022-12-03T12:06:59.785Z,102301.13
2022-12-03T12:09:53.465Z,102297.94
2022-12-03T12:12:28.844Z,102290.25
2022-12-03T12:14:56.677Z,102286.59
2022-12-03T12:17:36.562Z,102270.94
2022-12-03T12:20:23.200Z,102273.06
2022-12-03T12:22:51.264Z,102260.34
2022-12-03T12:25:39.567Z,102265.25
2022-12-03T12:28:07.438Z,102261.66
2022-12-03T12:30:35.149Z,102261.91
2022-12-03T12:33:16.885Z,102265.78
2022-12-03T12:35:44.201Z,102256.66
2022-12-03T12:38:18.106Z,102256.88
2022-12-03T12:40:47.346Z,102260.97
2022-12-03T12:43:24.741Z,102247.56
2022-12-03T12:45:53.637Z,102246.31
2022-12-03T12:48:27.187Z,102250.41
2022-12-03T12:51:00.205Z,102244.41
2022-12-03T12:53:29.637Z,102246.28
2022-12-03T12:55:58.931Z,102237.47
2022-12-03T12:58:30.005Z,102237.47
2022-12-03T13:01:04.495Z,102239.97
2022-12-03T13:03:36.802Z,102225.84
2022-12-03T13:06:04.380Z,102233.91
2022-12-03T13:08:34.038Z,102232.56
2022-12-03T13:11:02.185Z,102230.53
2022-12-03T13:13:41.619Z,102227.22
2022-12-03T13:16:16.498Z,102223.88
2022-12-03T13:18:46.896Z,102228.47
2022-12-03T13:21:22.254Z,102229.25
2022-12-03T13:23:52.538Z,102234.25
2022-12-03T13:26:34.538Z,102231.88
2022-12-03T13:29:11.059Z,102228.31
2022-12-03T13:31:43.423Z,102230.75
2022-12-03T13:34:19.067Z,102229.97
2022-12-03T13:36:53.485Z,102224.75
2022-12-03T13:39:30.658Z,102230.97
2022-12-03T13:42:02.998Z,102218.88
2022-12-03T13:44:31.136Z,102216.75
2022-12-03T13:47:01.950Z,102226.78
2022-12-03T13:49:30.597Z,102218.88
2022-12-03T13:51:57.938Z,102222.31
2022-12-03T13:54:29.089Z,102220.91
2022-12-03T13:56:56.330Z,102223.66
2022-12-03T13:59:26.259Z,102219.66
2022-12-03T14:01:53.930Z,102212.81
2022-12-03T14:04:21.207Z,102219.81
2022-12-03T14:06:50.234Z,102217.06
2022-12-03T14:09:17.478Z,102216.53
2022-12-03T14:11:44.852Z,102211.84
2022-12-03T14:14:12.429Z,102218.16
2022-12-03T14:16:39.826Z,102217.91
2022-12-03T14:19:07.485Z,102204.78
2022-12-03T14:21:34.938Z,102213.94
2022-12-03T14:24:03.954Z,102217.16
2022-12-03T14:26:32.178Z,102211.34
2022-12-03T14:28:59.448Z,102212.72
2022-12-03T14:31:26.715Z,102203.66
2022-12-03T14:33:53.999Z,102197.16
2022-12-03T14:36:21.322Z,102194.66
2022-12-03T14:38:48.652Z,102197.53
2022-12-03T14:41:17.310Z,102181.41
2022-12-03T14:43:44.615Z,102188.31
2022-12-03T14:46:11.998Z,102189.44
2022-12-03T14:48:39.326Z,102185.88
2022-12-03T14:51:06.651Z,102185.44
2022-12-03T14:53:33.973Z,102184.53
2022-12-03T14:56:01.320Z,102175.94
2022-12-03T14:58:30.065Z,102179.03
2022-12-03T15:00:57.380Z,102173.09
2022-12-03T15:03:24.687Z,102176.19
2022-12-03T15:05:51.987Z,102177.34
2022-12-03T15:08:19.283Z,102173.44
2022-12-03T15:10:46.620Z,102169.53
2022-12-03T15:13:13.920Z,102164.75
2022-12-03T15:15:42.608Z,102164.84
2022-12-03T15:18:09.886Z,102163.63
2022-12-03T15:20:37.265Z,102173.44
2022-12-03T15:23:04.547Z,102169.09
2022-12-03T15:25:31.840Z,102173.53
2022-12-03T15:27:59.139Z,102176.53
2022-12-03T15:30:26.409Z,102174.81
2022-12-03T15:32:55.043Z,102177.56
2022-12-03T15:35:22.408Z,102174.50
2022-12-03T15:37:49.644Z,102176.53
2022-12-03T15:40:17.099Z,102175.41
2022-12-03T15:42:44.380Z,102183.63
2022-12-03T15:45:15.147Z,102185.50
2022-12-03T15:47:43.350Z,102186.53
2022-12-03T15:50:12.939Z,102181.94
2022-12-03T15:52:40.418Z,102176.91
2022-12-03T15:55:08.545Z,102177.16
2022-12-03T15:57:36.202Z,102183.06
2022-12-03T16:00:05.169Z,102180.69
2022-12-03T16:02:39.482Z,102177.16
2022-12-03T16:05:09.770Z,102182.19
2022-12-03T16:07:39.088Z,102182.31
2022-12-03T16:10:09.282Z,102192.72
2022-12-03T16:12:36.821Z,102188.16
2022-12-03T16:15:05.130Z,102187.47
2022-12-03T16:17:32.448Z,102191.91
2022-12-03T16:19:59.745Z,102184.94
2022-12-03T16:22:27.026Z,102183.78
2022-12-03T16:24:55.743Z,102193.06
2022-12-03T16:27:25.929Z,102192.72
2022-12-03T16:29:53.696Z,102189.06
2022-12-03T16:32:21.221Z,102193.84
2022-12-03T16:34:48.579Z,102191.81
2022-12-03T16:37:15.967Z,102196.50
2022-12-03T16:39:48.085Z,102197.53
2022-12-03T16:42:17.651Z,102196.59
2022-12-03T16:44:45.094Z,102189.75
2022-12-03T16:47:12.440Z,102187.47
2022-12-03T16:49:39.704Z,102190.22
2022-12-03T16:52:07.050Z,102190.56
2022-12-03T16:54:34.412Z,102178.75
2022-12-03T16:57:01.719Z,102182.44
2022-12-03T16:59:30.381Z,102191.34
2022-12-03T17:01:57.876Z,102188.94
2022-12-03T17:04:25.181Z,102190.31
2022-12-03T17:06:52.518Z,102185.75
2022-12-03T17:09:19.822Z,102189.63
2022-12-03T17:11:47.250Z,102192.72
2022-12-03T17:14:14.533Z,102185.44
2022-12-03T17:16:43.328Z,102191.13
2022-12-03T17:19:10.584Z,102184.84
2022-12-03T17:21:37.967Z,102179.94
2022-12-03T17:24:05.973Z,102180.59
2022-12-03T17:26:33.448Z,102173.53
2022-12-03T17:29:00.749Z,102176.50
2022-12-03T17:31:28.361Z,102181.28
2022-12-03T17:33:57.112Z,102173.75
2022-12-03T17:36:24.706Z,102169.63
2022-12-03T17:38:52.653Z,102166.88
2022-12-03T17:41:19.993Z,102179.00
2022-12-03T17:43:50.230Z,102169.63
2022-12-03T17:46:17.571Z,102173.53
2022-12-03T17:48:44.988Z,102171.91
2022-12-03T17:51:13.774Z,102163.69
2022-12-03T17:53:41.082Z,102163.00
2022-12-03T17:56:08.402Z,102170.09
2022-12-03T17:58:35.714Z,102165.28
2022-12-03T18:01:03.560Z,102163.00
2022-12-03T18:03:31.169Z,102164.38
2022-12-03T18:05:58.558Z,102174.66
2022-12-03T18:08:27.317Z,102167.56
2022-12-03T18:10:54.787Z,102169.41
2022-12-03T18:13:22.161Z,102172.03
2022-12-03T18:15:49.639Z,102169.50
2022-12-03T18:18:16.973Z,102168.03
2022-12-03T18:20:44.334Z,102166.31
2022-12-03T18:23:12.222Z,102161.06
2022-12-03T18:25:41.719Z,102156.50
2022-12-03T18:28:09.011Z,102168.28
2022-12-03T18:30:36.594Z,102168.28
2022-12-03T18:33:03.999Z,102172.59
2022-12-03T18:35:31.416Z,102177.63
2022-12-03T18:37:58.783Z,102172.84
2022-12-03T18:40:26.209Z,102172.38
2022-12-03T18:42:55.908Z,102176.94
2022-12-03T18:45:23.344Z,102181.53
2022-12-03T18:47:54.181Z,102184.50
2022-12-03T18:50:21.839Z,102177.13
2022-12-03T18:52:49.123Z,102177.03
2022-12-03T18:55:18.441Z,102178.06
2022-12-03T18:57:45.892Z,102175.06
2022-12-03T19:00:15.938Z,102178.84
2022-12-03T19:03:02.571Z,102174.94
2022-12-03T19:05:31.460Z,102182.00
2022-12-03T19:07:58.882Z,102175.19
2022-12-03T19:10:26.729Z,102175.53
2022-12-03T19:12:54.060Z,102175.19
2022-12-03T19:15:22.799Z,102171.97
2022-12-03T19:17:51.141Z,102171.75
2022-12-03T19:20:18.520Z,102172.09
2022-12-03T19:22:45.813Z,102182.38
2022-12-03T19:25:13.126Z,102175.56
2022-12-03T19:27:40.490Z,102174.41
2022-12-03T19:30:09.027Z,102179.53
2022-12-03T19:32:37.722Z,102183.09
2022-12-03T19:35:05.726Z,102175.56
2022-12-03T19:37:33.555Z,102179.41
2022-12-03T19:40:00.845Z,102187.66
2022-12-03T19:42:28.245Z,102182.16
2022-12-03T19:44:55.587Z,102180.81
2022-12-03T19:47:22.840Z,102185.84
2022-12-03T19:49:52.689Z,102187.44
2022-12-03T19:52:20.329Z,102184.25
2022-12-03T19:54:47.819Z,102192.00
2022-12-03T19:57:21.545Z,102189.72
2022-12-03T19:59:50.515Z,102185.84
2022-12-03T20:02:17.979Z,102181.72
2022-12-03T20:04:45.463Z,102188.81
2022-12-03T20:07:14.608Z,102185.47
2022-12-03T20:09:42.233Z,102197.94
2022-12-03T20:12:09.495Z,102190.81
2022-12-03T20:14:36.859Z,102189.25
2022-12-03T20:17:04.270Z,102194.47
2022-12-03T20:19:31.660Z,102190.59
2022-12-03T20:22:02.545Z,102188.06
2022-12-03T20:24:32.060Z,102186.72
2022-12-03T20:26:59.308Z,102178.84
2022-12-03T20:29:26.801Z,102179.63
2022-12-03T20:31:54.185Z,102180.09
2022-12-03T20:34:21.676Z,102172.31
2022-12-03T20:36:49.021Z,102171.84
2022-12-03T20:39:16.412Z,102177.81
2022-12-03T20:41:45.078Z,102187.50
2022-12-03T20:44:12.401Z,102174.94
2022-12-03T20:46:39.757Z,102178.03
2022-12-03T20:49:07.169Z,102170.91
2022-12-03T20:51:34.540Z,102178.97
2022-12-03T20:54:01.951Z,102173.13
2022-12-03T20:56:30.876Z,102167.31
2022-12-03T20:59:03.254Z,102165.13
2022-12-03T21:01:30.721Z,102162.16
2022-12-03T21:03:58.309Z,102168.66
2022-12-03T21:06:27.351Z,102168.66
2022-12-03T21:08:55.824Z,102166.81
2022-12-03T21:11:26.683Z,102161.78
2022-12-03T21:13:54.391Z,102174.56
2022-12-03T21:16:45.704Z,102166.09
2022-12-03T21:19:12.166Z,102166.56
2022-12-03T21:21:39.510Z,102167.94
2022-12-03T21:24:07.419Z,102164.03
2022-12-03T21:26:34.662Z,102169.53
2022-12-03T21:29:02.030Z,102169.25
2022-12-03T21:31:30.729Z,102169.72
2022-12-03T21:33:58.550Z,102168.78
2022-12-03T21:36:26.130Z,102164.47
2022-12-03T21:38:53.484Z,102170.16
2022-12-03T21:41:20.805Z,102170.81
2022-12-03T21:43:48.124Z,102172.91
2022-12-03T21:47:11.088Z,102172.91
2022-12-03T21:49:04.765Z,102178.38
2022-12-03T21:51:32.292Z,102178.91
2022-12-03T21:53:59.681Z,102184.38
2022-12-03T21:56:27.105Z,102174.22
2022-12-03T21:58:54.770Z,102184.72
2022-12-03T22:01:24.137Z,102171.50
2022-12-03T22:03:51.580Z,102173.75
2022-12-03T22:06:21.110Z,102173.41
2022-12-03T22:08:48.842Z,102172.63
2022-12-03T22:11:19.366Z,102176.75
2022-12-03T22:13:47.023Z,102177.56
2022-12-03T22:16:16.861Z,102166.47
2022-12-03T22:18:44.503Z,102169.00
2022-12-03T22:21:13.822Z,102159.63
2022-12-03T22:23:43.243Z,102164.47
2022-12-03T22:26:12.936Z,102155.31
2022-12-03T22:28:42.897Z,102159.84
2022-12-03T22:31:11.054Z,102157.78
2022-12-03T22:33:39.127Z,102166.00
2022-12-03T22:36:08.368Z,102165.66
2022-12-03T22:38:35.823Z,102158.94
2022-12-03T22:41:06.956Z,102149.31
2022-12-03T22:43:35.345Z,102153.69
2022-12-03T22:46:03.159Z,102160.53
2022-12-03T22:48:32.875Z,102148.84
2022-12-03T22:51:00.228Z,102152.06
2022-12-03T22:53:27.743Z,102153.53
2022-12-03T22:55:57.162Z,102156.41
2022-12-03T22:58:27.372Z,102152.66
2022-12-03T23:01:01.259Z,102153.94
2022-12-03T23:03:30.349Z,102142.03
2022-12-03T23:05:57.641Z,102151.97
2022-12-03T23:08:24.976Z,102145.00
2022-12-03T23:10:52.873Z,102146.03
2022-12-03T23:13:20.428Z,102138.41
2022-12-03T23:15:50.843Z,102143.03
2022-12-03T23:18:18.796Z,102138.81
2022-12-03T23:20:47.741Z,102142.50
2022-12-03T23:23:15.991Z,102141.56
2022-12-03T23:25:43.514Z,102144.56
2022-12-03T23:28:11.235Z,102148.25
2022-12-03T23:30:39.645Z,102145.59
2022-12-03T23:33:08.339Z,102136.81
2022-12-03T23:35:38.865Z,102134.41
2022-12-03T23:38:06.210Z,102138.13
2022-12-03T23:40:34.335Z,102132.00
2022-12-03T23:43:01.723Z,102134.75
2022-12-03T23:45:29.028Z,102133.13
2022-12-03T23:47:58.302Z,102128.50
2022-12-03T23:50:27.805Z,102134.53
2022-12-03T23:52:55.287Z,102134.41
2022-12-03T23:55:22.717Z,102129.72
2022-12-03T23:57:50.195Z,102135.88
